Time;durP1;ratioP1;P1;durP2;ratioP2;P2;SDS_P1;SDS_P2;PMS_P1;PMS_P2;Temp;Humidity;BMP_temperature;BMP_pressure;BME280_temperature;BME280_humidity;BME280_pressure;Samples;Min_cycle;Max_cycle;Signal;HPM_P1;HPM_P2
2023/11/26 00:00:12;;;;;;;17.60;7.40;;;7.40;95.20;;;;;;4267390;27;20114;-57
2023/11/26 00:02:14;;;;;;;13.73;5.03;;;7.40;95.50;;;;;;4265903;27;20053;-58
2023/11/26 00:04:16;;;;;;;16.92;6.72;;;7.50;95.60;;;;;;4266212;27;20118;-58
2023/11/26 00:06:18;;;;;;;17.95;7.47;;;7.50;95.20;;;;;;4266189;27;20046;-59
2023/11/26 00:08:20;;;;;;;17.75;6.30;;;7.50;94.70;;;;;;4266546;27;20523;-61
2023/11/26 00:10:23;;;;;;;20.35;6.35;;;7.40;95.10;;;;;;4266270;27;20055;-58
2023/11/26 00:12:25;;;;;;;17.48;6.68;;;7.20;94.90;;;;;;4266652;27;20077;-58
2023/11/26 00:14:28;;;;;;;15.38;6.28;;;7.30;94.90;;;;;;4266884;27;20127;-58
2023/11/26 00:16:35;;;;;;;14.85;6.45;;;7.30;95.50;;;;;;4266282;27;20038;-57
2023/11/26 00:18:38;;;;;;;16.52;6.90;;;7.30;94.90;;;;;;4266172;27;20042;-59
2023/11/26 00:20:41;;;;;;;17.08;6.82;;;7.40;95.20;;;;;;4265890;27;20056;-58
2023/11/26 00:22:43;;;;;;;17.98;6.28;;;7.30;94.80;;;;;;4266357;27;20062;-57
2023/11/26 00:24:45;;;;;;;16.05;6.43;;;7.40;95.70;;;;;;4266354;27;20078;-58
2023/11/26 00:26:48;;;;;;;23.55;6.18;;;7.50;95.40;;;;;;4265888;27;20051;-58
2023/11/26 00:28:50;;;;;;;14.40;6.00;;;7.60;95.50;;;;;;4265771;27;20079;-58
2023/11/26 00:30:54;;;;;;;14.98;5.80;;;7.60;95.10;;;;;;4266158;27;20051;-57
2023/11/26 00:32:56;;;;;;;15.80;6.05;;;7.50;95.70;;;;;;4265692;27;20046;-57
2023/11/26 00:34:58;;;;;;;16.77;6.28;;;7.40;94.90;;;;;;4265330;27;20046;-60
2023/11/26 00:37:01;;;;;;;14.90;6.85;;;7.30;95.10;;;;;;4266198;27;20066;-58
2023/11/26 00:39:03;;;;;;;14.57;6.05;;;7.20;94.80;;;;;;4265535;27;20055;-58
2023/11/26 00:41:05;;;;;;;19.55;6.47;;;7.40;95.80;;;;;;4265572;27;20042;-61
2023/11/26 00:43:07;;;;;;;14.48;6.45;;;7.40;95.90;;;;;;4267485;27;20049;-59
2023/11/26 00:45:09;;;;;;;17.17;6.35;;;7.40;95.20;;;;;;4266800;27;20045;-59
2023/11/26 00:47:13;;;;;;;17.50;7.43;;;7.30;95.20;;;;;;4265525;27;20140;-58
2023/11/26 00:49:15;;;;;;;19.58;6.88;;;7.30;95.80;;;;;;4265540;27;20047;-59
2023/11/26 00:51:17;;;;;;;14.95;5.90;;;7.50;95.90;;;;;;4267342;27;20117;-58
2023/11/26 00:53:19;;;;;;;13.23;5.78;;;7.50;95.50;;;;;;4267754;27;20057;-63
2023/11/26 00:55:22;;;;;;;17.52;7.25;;;7.50;95.20;;;;;;4267690;27;20441;-58
2023/11/26 00:57:24;;;;;;;18.10;6.35;;;7.20;94.70;;;;;;4265655;27;20047;-58
2023/11/26 00:59:26;;;;;;;20.30;6.78;;;7.20;94.90;;;;;;4265590;27;20403;-58
2023/11/26 01:01:28;;;;;;;13.52;5.90;;;7.30;96.30;;;;;;4265612;27;20042;-58
2023/11/26 01:03:34;;;;;;;16.95;7.07;;;7.40;95.40;;;;;;4265343;27;20085;-58
2023/11/26 01:05:36;;;;;;;15.75;6.15;;;7.40;95.40;;;;;;4265886;27;20076;-58
2023/11/26 01:07:38;;;;;;;15.90;5.78;;;7.40;95.80;;;;;;4265329;27;20043;-58
2023/11/26 01:09:40;;;;;;;16.92;6.90;;;7.40;95.60;;;;;;4265338;27;20046;-57
2023/11/26 01:11:43;;;;;;;14.63;7.20;;;7.40;95.20;;;;;;4265388;27;20049;-67
2023/11/26 01:13:45;;;;;;;14.23;5.80;;;7.40;95.50;;;;;;4265638;27;20463;-59
2023/11/26 01:15:47;;;;;;;13.13;5.78;;;7.40;95.40;;;;;;4265708;27;20133;-57
2023/11/26 01:17:50;;;;;;;16.08;6.28;;;7.30;95.40;;;;;;4265066;27;20126;-60
2023/11/26 01:19:53;;;;;;;13.27;5.75;;;7.20;95.30;;;;;;4265316;27;20536;-57
2023/11/26 01:21:55;;;;;;;13.48;5.80;;;7.20;95.20;;;;;;4246869;27;20046;-58
2023/11/26 01:23:58;;;;;;;13.63;5.75;;;7.30;95.60;;;;;;4265088;27;20042;-57
2023/11/26 01:26:00;;;;;;;15.05;5.40;;;7.20;95.60;;;;;;4265240;27;20043;-58
2023/11/26 01:28:02;;;;;;;17.00;6.57;;;7.30;96.00;;;;;;4265254;27;20107;-58
2023/11/26 01:30:05;;;;;;;20.08;6.40;;;7.30;95.80;;;;;;4246868;27;20057;-61
2023/11/26 01:32:07;;;;;;;14.10;5.18;;;7.40;95.40;;;;;;4264327;27;20130;-58
2023/11/26 01:34:09;;;;;;;15.35;6.30;;;7.40;96.20;;;;;;4265067;27;20453;-58
2023/11/26 01:36:13;;;;;;;12.88;6.25;;;7.40;95.30;;;;;;4265485;27;20042;-58
2023/11/26 01:38:15;;;;;;;18.50;6.10;;;7.40;95.50;;;;;;4265319;27;20043;-59
2023/11/26 01:40:17;;;;;;;12.18;5.75;;;7.30;95.40;;;;;;4265116;27;20050;-58
2023/11/26 01:42:19;;;;;;;15.13;6.80;;;7.10;95.80;;;;;;4265578;27;20054;-58
2023/11/26 01:44:21;;;;;;;14.10;6.28;;;7.10;95.50;;;;;;4265467;27;20038;-58
2023/11/26 01:46:24;;;;;;;17.08;6.75;;;7.10;95.40;;;;;;4265660;27;20488;-57
2023/11/26 01:48:26;;;;;;;23.42;7.70;;;7.00;95.60;;;;;;4264872;27;20043;-58
2023/11/26 01:50:29;;;;;;;16.27;7.32;;;6.90;95.60;;;;;;4265070;27;20110;-57
2023/11/26 01:52:32;;;;;;;15.35;6.28;;;6.90;95.80;;;;;;4265009;27;20126;-57
2023/11/26 01:54:36;;;;;;;16.83;7.15;;;6.80;95.90;;;;;;4264864;27;20406;-58
2023/11/26 01:56:38;;;;;;;14.10;6.50;;;6.90;95.70;;;;;;4264700;27;20077;-57
2023/11/26 01:58:41;;;;;;;19.38;7.20;;;6.90;96.20;;;;;;4245628;27;20051;-57
2023/11/26 02:00:43;;;;;;;16.60;6.50;;;7.10;96.00;;;;;;4264620;27;20076;-57
2023/11/26 02:02:45;;;;;;;19.10;6.72;;;7.00;95.90;;;;;;4264201;27;20069;-58
2023/11/26 02:04:48;;;;;;;17.73;5.97;;;6.90;95.70;;;;;;4264550;27;20444;-57
2023/11/26 02:06:53;;;;;;;15.55;6.20;;;6.90;96.80;;;;;;4265344;27;20043;-58
2023/11/26 02:08:57;;;;;;;20.20;6.72;;;7.00;96.30;;;;;;4265651;27;20047;-58
2023/11/26 02:10:59;;;;;;;15.10;6.95;;;7.00;96.10;;;;;;4264628;27;20047;-58
2023/11/26 02:13:02;;;;;;;14.23;5.82;;;6.90;96.10;;;;;;4264578;27;20047;-57
2023/11/26 02:15:05;;;;;;;17.90;6.70;;;7.00;96.30;;;;;;4264594;27;20051;-58
2023/11/26 02:17:07;;;;;;;18.73;7.43;;;6.90;96.60;;;;;;4263830;27;20051;-58
2023/11/26 02:19:23;;;;;;;19.27;7.53;;;7.00;96.70;;;;;;4264599;27;20074;-58
2023/11/26 02:21:26;;;;;;;18.40;6.90;;;7.00;96.30;;;;;;4264414;27;20047;-57
2023/11/26 02:23:32;;;;;;;16.55;6.93;;;7.00;96.30;;;;;;4264311;27;20440;-58
2023/11/26 02:25:36;;;;;;;17.50;8.68;;;6.90;96.40;;;;;;4264301;27;20046;-59
2023/11/26 02:27:38;;;;;;;21.33;8.40;;;6.80;95.80;;;;;;4245857;27;20127;-57
2023/11/26 02:29:40;;;;;;;19.75;8.18;;;6.70;95.90;;;;;;4264505;27;20121;-58
2023/11/26 02:31:42;;;;;;;19.13;8.20;;;6.80;96.60;;;;;;4263992;27;20050;-57
2023/11/26 02:33:45;;;;;;;18.55;8.70;;;6.90;96.50;;;;;;4264348;27;20117;-58
2023/11/26 02:35:57;;;;;;;22.50;7.82;;;6.80;96.20;;;;;;4247532;27;20541;-58
2023/11/26 02:37:59;;;;;;;15.88;7.95;;;6.80;96.60;;;;;;4263906;27;20436;-57
2023/11/26 02:40:05;;;;;;;18.23;8.57;;;6.90;96.70;;;;;;4264196;27;20043;-57
2023/11/26 02:42:08;;;;;;;22.40;8.10;;;6.90;96.70;;;;;;4264318;27;20039;-58
2023/11/26 02:44:10;;;;;;;16.63;7.50;;;7.00;96.80;;;;;;4264345;27;20042;-58
2023/11/26 02:46:14;;;;;;;16.88;8.02;;;6.90;95.80;;;;;;4264003;27;20039;-58
2023/11/26 02:48:19;;;;;;;20.77;7.93;;;6.90;96.00;;;;;;4264401;27;20077;-58
2023/11/26 02:50:22;;;;;;;20.95;8.07;;;6.80;96.20;;;;;;4264267;27;20476;-58
2023/11/26 02:52:24;;;;;;;17.83;6.97;;;6.80;96.80;;;;;;4264234;27;20122;-58
2023/11/26 02:54:26;;;;;;;16.75;7.38;;;6.90;96.60;;;;;;4264267;27;20046;-58
2023/11/26 02:56:28;;;;;;;20.25;7.47;;;6.80;96.70;;;;;;4264288;27;20053;-58
2023/11/26 02:58:32;;;;;;;16.83;7.38;;;6.90;96.60;;;;;;4264131;27;20059;-58
2023/11/26 03:00:36;;;;;;;13.48;6.60;;;6.90;96.10;;;;;;4263963;27;20388;-57
2023/11/26 03:02:40;;;;;;;17.30;6.55;;;6.80;96.10;;;;;;4264221;27;20110;-57
2023/11/26 03:04:49;;;;;;;16.65;6.38;;;6.80;96.20;;;;;;4264034;27;20499;-58
2023/11/26 03:06:52;;;;;;;13.98;6.05;;;6.70;96.10;;;;;;4263991;27;20039;-57
2023/11/26 03:09:00;;;;;;;14.07;5.97;;;6.70;96.10;;;;;;4264171;27;20535;-58
2023/11/26 03:13:23;;;;;;;16.13;6.30;;;6.60;96.00;;;;;;4267375;27;20042;-57
2023/11/26 03:15:27;;;;;;;14.20;6.00;;;6.70;96.40;;;;;;4267116;27;20039;-58
2023/11/26 03:17:29;;;;;;;11.75;5.15;;;6.70;96.50;;;;;;4267195;27;20058;-57
2023/11/26 03:19:32;;;;;;;13.88;5.63;;;6.80;96.50;;;;;;4248926;27;20058;-58
2023/11/26 03:21:36;;;;;;;13.45;5.43;;;6.90;96.70;;;;;;4267346;27;20377;-58
2023/11/26 03:23:38;;;;;;;11.23;5.22;;;6.90;96.30;;;;;;4267294;27;20039;-59
2023/11/26 03:25:40;;;;;;;14.93;5.35;;;6.80;96.30;;;;;;4268162;27;20456;-61
2023/11/26 03:27:42;;;;;;;13.95;5.20;;;6.80;95.80;;;;;;4267172;27;20059;-57
2023/11/26 03:29:45;;;;;;;15.57;5.53;;;6.80;96.20;;;;;;4247974;27;20467;-58
2023/11/26 03:31:48;;;;;;;20.45;5.88;;;6.80;95.90;;;;;;4266873;27;20070;-57
2023/11/26 03:33:52;;;;;;;11.52;5.32;;;6.60;96.00;;;;;;4266748;27;20118;-57
2023/11/26 03:35:55;;;;;;;12.80;4.83;;;6.60;96.10;;;;;;4266820;27;20125;-58
2023/11/26 03:37:57;;;;;;;14.52;6.32;;;6.60;96.80;;;;;;4266730;27;20457;-58
2023/11/26 03:39:59;;;;;;;14.45;5.10;;;6.80;96.50;;;;;;4265926;27;20111;-57
2023/11/26 03:42:01;;;;;;;12.70;4.00;;;6.80;96.10;;;;;;4266840;27;20046;-58
2023/11/26 03:44:10;;;;;;;11.75;5.00;;;6.80;96.20;;;;;;4266535;27;20047;-58
2023/11/26 03:46:12;;;;;;;12.30;5.15;;;6.90;95.90;;;;;;4266563;27;20041;-57
2023/11/26 03:48:16;;;;;;;9.90;4.00;;;6.90;96.00;;;;;;4266674;27;20553;-57
2023/11/26 03:50:19;;;;;;;13.45;5.07;;;6.90;96.30;;;;;;4266556;27;20047;-58
2023/11/26 03:52:21;;;;;;;12.43;5.55;;;7.00;95.90;;;;;;4266474;27;20043;-58
2023/11/26 03:54:24;;;;;;;11.95;4.50;;;6.90;95.70;;;;;;4266557;27;20054;-58
2023/11/26 03:56:26;;;;;;;12.88;4.80;;;6.70;95.50;;;;;;4267417;27;20054;-58
2023/11/26 03:58:29;;;;;;;15.80;4.88;;;6.60;96.00;;;;;;4268467;27;20062;-63
2023/11/26 04:00:31;;;;;;;14.93;5.00;;;6.70;96.50;;;;;;4268642;27;20049;-58
2023/11/26 04:02:33;;;;;;;10.93;4.80;;;6.80;96.60;;;;;;4268412;27;20043;-59
2023/11/26 04:04:37;;;;;;;12.20;3.92;;;6.70;95.90;;;;;;4267381;27;20051;-58
2023/11/26 04:06:39;;;;;;;8.95;4.78;;;6.70;96.20;;;;;;4266473;27;20461;-58
2023/11/26 04:08:41;;;;;;;13.85;4.88;;;6.70;96.00;;;;;;4248045;27;20151;-58
2023/11/26 04:10:43;;;;;;;18.77;5.15;;;6.80;96.80;;;;;;4266263;27;20046;-58
2023/11/26 04:12:45;;;;;;;14.25;4.60;;;6.80;96.10;;;;;;4266074;27;20122;-57
2023/11/26 04:14:55;;;;;;;9.50;4.10;;;6.90;96.20;;;;;;4266292;27;20047;-58
2023/11/26 04:16:58;;;;;;;14.52;4.15;;;6.80;96.30;;;;;;4247844;27;20176;-58
2023/11/26 04:19:00;;;;;;;12.10;4.75;;;6.80;96.20;;;;;;4247895;27;20051;-57
2023/11/26 04:21:07;;;;;;;9.02;3.83;;;6.50;96.30;;;;;;4266282;27;20052;-58
2023/11/26 04:23:09;;;;;;;11.90;4.95;;;6.60;96.40;;;;;;4265546;27;20050;-58
2023/11/26 04:25:11;;;;;;;12.50;4.53;;;6.60;96.70;;;;;;4266013;27;20099;-57
2023/11/26 04:27:13;;;;;;;10.90;4.55;;;6.60;96.30;;;;;;4265708;27;20091;-57
2023/11/26 04:29:16;;;;;;;11.77;4.30;;;6.80;96.80;;;;;;4265645;27;20082;-57
2023/11/26 04:31:19;;;;;;;9.90;4.40;;;6.80;96.30;;;;;;4265836;27;20077;-60
2023/11/26 04:33:21;;;;;;;12.73;4.70;;;6.80;96.30;;;;;;4265710;27;20077;-57
2023/11/26 04:35:23;;;;;;;14.48;4.80;;;6.80;96.00;;;;;;4265853;27;20408;-57
2023/11/26 04:37:27;;;;;;;12.32;5.10;;;6.70;96.30;;;;;;4266368;27;20053;-57
2023/11/26 04:39:29;;;;;;;9.68;4.28;;;6.70;96.10;;;;;;4267260;27;20062;-61
2023/11/26 04:41:31;;;;;;;11.00;4.70;;;6.60;96.50;;;;;;4266955;27;20054;-58
2023/11/26 04:43:33;;;;;;;17.35;4.47;;;6.50;96.30;;;;;;4267470;27;20043;-58
2023/11/26 04:45:35;;;;;;;12.43;4.20;;;6.50;96.80;;;;;;4266965;27;20112;-58
2023/11/26 04:47:37;;;;;;;12.50;4.30;;;6.60;96.70;;;;;;4266643;27;20039;-57
2023/11/26 04:49:39;;;;;;;13.45;4.70;;;6.80;96.70;;;;;;4265882;27;20063;-58
2023/11/26 04:51:42;;;;;;;12.13;4.50;;;6.80;96.50;;;;;;4265515;27;20043;-58
2023/11/26 04:53:45;;;;;;;13.18;4.63;;;6.70;96.10;;;;;;4265652;27;20046;-58
2023/11/26 04:55:48;;;;;;;12.77;4.45;;;6.80;96.70;;;;;;4265066;27;20042;-58
2023/11/26 04:57:50;;;;;;;15.27;5.10;;;6.90;96.90;;;;;;4265196;27;20056;-58
2023/11/26 04:59:52;;;;;;;14.10;4.28;;;6.80;96.10;;;;;;4265351;27;20043;-57
2023/11/26 05:01:55;;;;;;;10.18;4.55;;;6.80;96.30;;;;;;4265413;27;20049;-58
2023/11/26 05:03:58;;;;;;;12.60;4.88;;;6.70;96.80;;;;;;4265303;27;20045;-57
2023/11/26 05:06:00;;;;;;;15.60;5.18;;;6.70;96.60;;;;;;4265226;27;20137;-57
2023/11/26 05:08:02;;;;;;;10.13;4.68;;;6.60;96.60;;;;;;4246875;27;20071;-57
2023/11/26 05:10:07;;;;;;;12.80;4.15;;;6.60;96.40;;;;;;4264787;27;20393;-57
2023/11/26 05:12:09;;;;;;;11.65;4.43;;;6.70;96.80;;;;;;4265308;27;20552;-57
2023/11/26 05:14:11;;;;;;;14.40;4.18;;;6.70;97.00;;;;;;4265528;27;20047;-57
2023/11/26 05:16:13;;;;;;;12.02;4.18;;;6.80;96.60;;;;;;4265900;27;20051;-59
2023/11/26 05:18:15;;;;;;;10.25;4.25;;;6.90;97.00;;;;;;4267889;27;20046;-58
2023/11/26 05:20:18;;;;;;;12.88;4.57;;;6.90;96.60;;;;;;4268509;27;20066;-65
2023/11/26 05:22:20;;;;;;;9.85;4.93;;;6.80;96.30;;;;;;4267856;27;20043;-60
2023/11/26 05:24:22;;;;;;;12.77;4.70;;;6.90;96.20;;;;;;4247812;27;20047;-58
2023/11/26 05:26:27;;;;;;;12.60;4.82;;;6.60;96.10;;;;;;4265428;27;20051;-57
2023/11/26 05:28:29;;;;;;;13.60;4.57;;;6.50;96.50;;;;;;4265115;27;20129;-58
2023/11/26 05:30:31;;;;;;;13.73;4.82;;;6.60;97.00;;;;;;4265484;27;20121;-58
2023/11/26 05:32:34;;;;;;;14.68;5.15;;;6.70;96.80;;;;;;4265783;27;20067;-62
2023/11/26 05:34:37;;;;;;;13.35;4.63;;;6.70;96.40;;;;;;4265399;27;20047;-58
2023/11/26 05:36:39;;;;;;;11.93;3.90;;;6.70;97.10;;;;;;4265901;27;20057;-59
2023/11/26 05:38:41;;;;;;;16.80;4.25;;;6.80;96.90;;;;;;4265074;27;20072;-58
2023/11/26 05:40:43;;;;;;;14.35;4.90;;;6.80;96.90;;;;;;4264785;27;20058;-57
2023/11/26 05:42:46;;;;;;;10.70;4.85;;;6.80;96.50;;;;;;4264939;27;20043;-57
2023/11/26 05:44:51;;;;;;;16.80;4.90;;;6.80;96.50;;;;;;4246996;27;20527;-57
2023/11/26 05:46:53;;;;;;;13.18;4.63;;;6.70;96.50;;;;;;4263416;27;20038;-58
2023/11/26 05:48:55;;;;;;;12.18;5.03;;;6.60;97.00;;;;;;4264730;27;20043;-57
2023/11/26 05:50:57;;;;;;;14.02;4.55;;;6.50;96.50;;;;;;4264931;27;20196;-58
2023/11/26 05:53:01;;;;;;;16.52;4.45;;;6.50;96.70;;;;;;4264866;27;20126;-58
2023/11/26 05:55:06;;;;;;;11.13;4.07;;;6.50;96.90;;;;;;4264766;27;20042;-59
2023/11/26 05:57:08;;;;;;;16.20;5.22;;;6.50;97.50;;;;;;4265393;27;20126;-57
2023/11/26 05:59:12;;;;;;;15.30;4.82;;;6.60;97.00;;;;;;4265152;27;20377;-57
2023/11/26 06:01:21;;;;;;;11.75;5.05;;;6.60;96.80;;;;;;4264402;27;20148;-58
2023/11/26 06:03:23;;;;;;;14.07;4.75;;;6.50;96.70;;;;;;4264806;27;20050;-57
2023/11/26 06:05:26;;;;;;;12.88;4.25;;;6.60;97.10;;;;;;4264524;27;20387;-57
2023/11/26 06:07:28;;;;;;;11.95;4.93;;;6.60;96.80;;;;;;4264642;27;20042;-57
2023/11/26 06:09:30;;;;;;;13.85;4.90;;;6.50;96.80;;;;;;4264030;27;20065;-57
2023/11/26 06:11:32;;;;;;;14.38;4.60;;;6.40;96.60;;;;;;4264624;27;20449;-58
2023/11/26 06:13:34;;;;;;;15.05;4.95;;;6.40;97.00;;;;;;4264478;27;20551;-57
2023/11/26 06:15:38;;;;;;;14.02;4.90;;;6.40;97.00;;;;;;4246176;28;20051;-58
2023/11/26 06:17:40;;;;;;;12.33;3.87;;;6.50;97.20;;;;;;4264554;27;20051;-57
2023/11/26 06:19:43;;;;;;;15.85;5.70;;;6.60;96.80;;;;;;4264603;27;20459;-57
2023/11/26 06:21:46;;;;;;;11.82;5.07;;;6.60;97.30;;;;;;4264560;27;20046;-57
2023/11/26 06:23:49;;;;;;;17.17;5.55;;;6.70;96.80;;;;;;4264084;27;20065;-58
2023/11/26 06:25:54;;;;;;;12.57;5.10;;;6.70;97.10;;;;;;4264296;27;20080;-57
2023/11/26 06:27:56;;;;;;;12.50;4.82;;;6.70;97.40;;;;;;4264602;27;20074;-62
2023/11/26 06:29:58;;;;;;;11.02;4.78;;;6.80;97.30;;;;;;4264572;27;20533;-58
2023/11/26 06:32:04;;;;;;;15.27;5.35;;;6.80;97.00;;;;;;4264499;27;20043;-58
2023/11/26 06:34:07;;;;;;;9.88;4.28;;;6.60;96.50;;;;;;4264692;27;20051;-57
2023/11/26 06:36:17;;;;;;;10.48;4.53;;;6.50;97.20;;;;;;4264589;27;20399;-58
2023/11/26 06:38:20;;;;;;;12.63;4.50;;;6.80;97.50;;;;;;4264250;27;20050;-58
2023/11/26 06:40:24;;;;;;;14.57;4.85;;;6.60;97.20;;;;;;4264463;27;20066;-58
2023/11/26 06:42:26;;;;;;;13.13;5.05;;;6.50;96.90;;;;;;4264577;27;20043;-57
2023/11/26 06:44:28;;;;;;;13.10;4.60;;;6.40;97.10;;;;;;4264249;27;20038;-58
2023/11/26 06:46:30;;;;;;;10.95;4.75;;;6.40;97.20;;;;;;4273395;27;20135;-58
2023/11/26 06:48:34;;;;;;;14.65;4.90;;;6.30;97.20;;;;;;4285151;27;20054;-57
2023/11/26 06:50:36;;;;;;;11.70;5.03;;;6.30;97.40;;;;;;4285389;27;20396;-57
2023/11/26 06:52:38;;;;;;;11.85;4.35;;;6.20;97.30;;;;;;4284743;27;20106;-58
2023/11/26 06:54:41;;;;;;;14.55;5.82;;;6.20;97.70;;;;;;4285057;27;20046;-58
2023/11/26 06:56:43;;;;;;;18.98;4.93;;;6.20;97.30;;;;;;4266337;27;20047;-58
2023/11/26 06:58:46;;;;;;;16.80;5.07;;;6.40;97.70;;;;;;4284778;27;20500;-58
2023/11/26 07:00:48;;;;;;;13.88;5.40;;;6.40;97.30;;;;;;4284882;27;20458;-57
2023/11/26 07:02:50;;;;;;;13.35;4.85;;;6.40;97.50;;;;;;4284741;27;20045;-57
2023/11/26 07:04:54;;;;;;;16.27;5.72;;;6.50;97.20;;;;;;4285278;27;20368;-57
2023/11/26 07:06:56;;;;;;;14.82;5.15;;;6.50;97.20;;;;;;4266786;27;20077;-57
2023/11/26 07:09:00;;;;;;;14.18;5.75;;;6.40;97.00;;;;;;4287255;27;20107;-58
2023/11/26 07:11:02;;;;;;;16.98;5.85;;;6.30;97.10;;;;;;4286692;27;20084;-57
2023/11/26 07:13:05;;;;;;;15.93;5.47;;;6.30;97.30;;;;;;4286316;27;20070;-57
2023/11/26 07:15:09;;;;;;;12.25;5.25;;;6.30;97.20;;;;;;4284886;27;20054;-57
2023/11/26 07:17:12;;;;;;;12.93;5.55;;;6.40;97.50;;;;;;4284341;27;20046;-57
2023/11/26 07:19:14;;;;;;;16.05;5.60;;;6.30;97.10;;;;;;4265809;27;20426;-57
2023/11/26 07:21:18;;;;;;;12.13;5.03;;;6.40;97.10;;;;;;4284051;27;20499;-57
2023/11/26 07:23:21;;;;;;;20.35;5.40;;;6.30;97.20;;;;;;4284302;27;20532;-58
2023/11/26 07:25:23;;;;;;;17.73;5.15;;;6.40;97.70;;;;;;4284548;27;20129;-57
2023/11/26 07:27:25;;;;;;;11.05;5.30;;;6.50;97.30;;;;;;4284077;27;20137;-57
2023/11/26 07:29:28;;;;;;;17.25;6.20;;;6.60;97.20;;;;;;4284072;27;20073;-57
2023/11/26 07:31:30;;;;;;;17.63;5.47;;;6.60;96.70;;;;;;4284070;27;20129;-57
2023/11/26 07:33:32;;;;;;;14.65;5.70;;;6.60;96.90;;;;;;4284029;27;20038;-57
2023/11/26 07:35:34;;;;;;;11.13;5.07;;;6.70;97.40;;;;;;4283773;27;20043;-57
2023/11/26 07:37:37;;;;;;;14.27;5.13;;;6.70;97.20;;;;;;4283966;27;20117;-57
2023/11/26 07:39:40;;;;;;;16.73;5.63;;;6.80;96.80;;;;;;4283800;27;20054;-57
2023/11/26 07:41:46;;;;;;;13.13;5.47;;;6.70;97.00;;;;;;4283989;27;20057;-58
2023/11/26 07:43:49;;;;;;;14.68;5.18;;;6.70;97.10;;;;;;4284051;27;20038;-57
2023/11/26 07:45:51;;;;;;;16.88;5.60;;;6.70;97.10;;;;;;4265243;27;20043;-59
2023/11/26 07:47:54;;;;;;;12.30;5.03;;;6.70;97.00;;;;;;4286356;27;20095;-59
2023/11/26 07:49:56;;;;;;;16.55;5.40;;;6.80;97.50;;;;;;4284745;27;20479;-57
2023/11/26 07:51:58;;;;;;;13.10;5.50;;;6.80;97.30;;;;;;4283803;27;20090;-58
2023/11/26 07:54:01;;;;;;;17.90;5.97;;;6.90;96.70;;;;;;4283796;27;20138;-57
2023/11/26 07:56:05;;;;;;;14.45;5.93;;;6.80;96.80;;;;;;4283974;27;20070;-58
2023/11/26 07:58:07;;;;;;;16.55;5.75;;;6.90;96.60;;;;;;4282890;27;20503;-57
2023/11/26 08:00:10;;;;;;;12.43;5.20;;;6.90;97.20;;;;;;4284310;27;20066;-59
2023/11/26 08:02:13;;;;;;;17.60;6.05;;;6.90;96.50;;;;;;4284471;27;20457;-57
2023/11/26 08:04:15;;;;;;;19.90;6.07;;;6.80;96.60;;;;;;4265297;27;20050;-58
2023/11/26 08:06:17;;;;;;;16.00;6.00;;;6.70;96.80;;;;;;4283787;27;20038;-57
2023/11/26 08:08:23;;;;;;;17.70;6.30;;;6.70;97.10;;;;;;4283874;27;20038;-58
2023/11/26 08:10:28;;;;;;;18.95;5.28;;;6.80;97.10;;;;;;4283862;27;20046;-58
2023/11/26 08:12:33;;;;;;;13.55;5.13;;;7.00;97.00;;;;;;4284056;27;20125;-58
2023/11/26 08:14:35;;;;;;;14.25;5.68;;;7.10;96.80;;;;;;4283493;27;20163;-57
2023/11/26 08:16:37;;;;;;;9.82;4.78;;;7.00;96.80;;;;;;4283437;27;20039;-57
2023/11/26 08:18:41;;;;;;;13.25;5.65;;;7.00;96.60;;;;;;4264595;27;20050;-57
2023/11/26 08:20:43;;;;;;;19.50;6.25;;;7.10;96.90;;;;;;4283351;27;20049;-57
2023/11/26 08:22:46;;;;;;;18.02;6.28;;;7.20;96.80;;;;;;4283254;27;20052;-57
2023/11/26 08:24:50;;;;;;;13.23;5.30;;;7.10;96.50;;;;;;4283421;27;20050;-57
2023/11/26 08:26:54;;;;;;;13.40;5.43;;;7.20;96.60;;;;;;4283034;27;20125;-57
2023/11/26 08:28:57;;;;;;;12.95;5.45;;;7.10;96.60;;;;;;4283414;27;20103;-58
2023/11/26 08:30:59;;;;;;;12.32;5.32;;;7.00;96.60;;;;;;4283508;27;20046;-57
2023/11/26 08:33:02;;;;;;;11.80;5.30;;;7.20;96.70;;;;;;4283160;27;20046;-57
2023/11/26 08:35:08;;;;;;;15.23;5.80;;;7.30;96.60;;;;;;4283408;27;20049;-57
2023/11/26 08:37:10;;;;;;;16.83;5.45;;;7.40;96.40;;;;;;4283550;27;20042;-57
2023/11/26 08:39:27;;;;;;;13.90;5.60;;;7.60;96.50;;;;;;4283349;27;20098;-57
2023/11/26 08:41:29;;;;;;;17.42;6.15;;;7.70;96.20;;;;;;4283436;27;20078;-59
2023/11/26 08:43:33;;;;;;;12.95;5.78;;;7.70;96.20;;;;;;4283111;27;20066;-57
2023/11/26 08:45:38;;;;;;;12.35;6.10;;;7.80;96.10;;;;;;4283053;27;20090;-58
2023/11/26 08:47:44;;;;;;;11.85;5.97;;;7.80;96.10;;;;;;4282261;27;20916;-58
2023/11/26 08:49:47;;;;;;;16.30;6.00;;;7.70;96.00;;;;;;4283121;27;20042;-57
2023/11/26 08:51:49;;;;;;;15.38;5.65;;;7.70;96.00;;;;;;4282603;27;20066;-57
2023/11/26 08:53:52;;;;;;;12.50;5.43;;;7.60;96.00;;;;;;4282768;27;20487;-57
2023/11/26 08:55:55;;;;;;;19.88;5.97;;;7.60;96.40;;;;;;4282694;27;20433;-57
2023/11/26 08:57:57;;;;;;;15.98;6.30;;;7.70;96.50;;;;;;4282747;27;20483;-57
2023/11/26 09:00:00;;;;;;;16.35;5.80;;;7.70;96.30;;;;;;4282739;27;20475;-57
2023/11/26 09:02:03;;;;;;;15.80;5.80;;;7.80;96.40;;;;;;4263885;27;20128;-57
2023/11/26 09:04:05;;;;;;;13.70;6.50;;;8.00;96.20;;;;;;4283074;27;20066;-57
2023/11/26 09:06:07;;;;;;;19.85;6.43;;;7.90;96.30;;;;;;4282763;27;20066;-57
2023/11/26 09:08:10;;;;;;;15.35;6.43;;;8.00;95.70;;;;;;4282350;27;20050;-57
2023/11/26 09:10:13;;;;;;;12.43;5.95;;;8.10;96.00;;;;;;4282091;27;20057;-57
2023/11/26 09:12:16;;;;;;;19.13;6.18;;;8.00;95.80;;;;;;4282665;27;20085;-57
2023/11/26 09:14:18;;;;;;;13.95;6.15;;;8.10;95.90;;;;;;4282671;27;20046;-57
2023/11/26 09:16:22;;;;;;;14.20;5.70;;;8.20;96.00;;;;;;4282153;27;20046;-57
2023/11/26 09:18:24;;;;;;;15.35;5.38;;;8.30;95.40;;;;;;4282188;27;20065;-57
2023/11/26 09:20:26;;;;;;;13.95;6.63;;;8.30;95.60;;;;;;4282319;27;20046;-58
2023/11/26 09:22:30;;;;;;;14.68;6.15;;;8.30;95.40;;;;;;4282372;27;20121;-57
2023/11/26 09:24:32;;;;;;;14.65;6.13;;;8.40;95.40;;;;;;4282706;27;20066;-57
2023/11/26 09:26:34;;;;;;;14.25;5.97;;;8.30;95.50;;;;;;4282316;27;20062;-57
2023/11/26 09:28:36;;;;;;;18.58;5.72;;;8.30;95.40;;;;;;4282186;27;20070;-57
2023/11/26 09:30:38;;;;;;;23.10;6.00;;;8.40;95.70;;;;;;4282324;27;20069;-58
2023/11/26 09:32:43;;;;;;;16.50;6.53;;;8.30;95.10;;;;;;4281752;27;20475;-57
2023/11/26 09:34:45;;;;;;;11.63;5.60;;;8.20;95.40;;;;;;4263837;27;20454;-58
2023/11/26 09:36:47;;;;;;;16.00;5.78;;;8.10;95.40;;;;;;4282224;27;20046;-57
2023/11/26 09:38:51;;;;;;;11.65;5.25;;;8.20;95.50;;;;;;4282277;27;20404;-57
2023/11/26 09:40:53;;;;;;;12.63;6.25;;;8.30;95.50;;;;;;4282812;27;20091;-64
2023/11/26 09:42:56;;;;;;;12.50;5.53;;;8.30;95.40;;;;;;4284205;27;20042;-57
2023/11/26 09:45:04;;;;;;;14.32;5.60;;;8.30;95.60;;;;;;4282924;27;20125;-57
2023/11/26 09:47:06;;;;;;;12.45;5.68;;;8.30;95.30;;;;;;4281581;27;20479;-57
2023/11/26 09:49:09;;;;;;;12.65;5.32;;;8.30;95.20;;;;;;4281884;27;20049;-57
2023/11/26 09:51:14;;;;;;;11.98;5.18;;;8.30;95.30;;;;;;4282018;27;20038;-57
2023/11/26 09:53:17;;;;;;;12.88;5.65;;;8.30;95.70;;;;;;4282046;27;20117;-57
2023/11/26 09:55:19;;;;;;;10.85;4.95;;;8.20;95.10;;;;;;4281893;27;20042;-56
2023/11/26 09:57:21;;;;;;;11.43;5.32;;;8.40;95.20;;;;;;4263528;27;20047;-57
2023/11/26 09:59:25;;;;;;;12.70;4.85;;;8.40;94.90;;;;;;4282168;27;20153;-57
2023/11/26 10:01:27;;;;;;;8.57;4.22;;;8.40;95.30;;;;;;4282910;27;20145;-58
2023/11/26 10:03:29;;;;;;;14.20;4.75;;;8.40;94.30;;;;;;4283072;27;20047;-57
2023/11/26 10:05:33;;;;;;;10.45;4.60;;;8.40;94.90;;;;;;4282116;27;20077;-57
2023/11/26 10:07:36;;;;;;;12.38;4.72;;;8.50;95.00;;;;;;4281779;27;20483;-57
2023/11/26 10:09:38;;;;;;;13.90;5.00;;;8.50;94.80;;;;;;4281993;27;20042;-57
2023/11/26 10:11:41;;;;;;;9.80;3.92;;;8.30;94.90;;;;;;4281863;27;20042;-61
2023/11/26 10:13:43;;;;;;;12.90;4.60;;;8.30;94.90;;;;;;4281709;27;20121;-57
2023/11/26 10:15:45;;;;;;;9.50;4.25;;;8.20;94.90;;;;;;4262782;27;20039;-56
2023/11/26 10:18:02;;;;;;;15.30;5.00;;;8.30;95.00;;;;;;4281591;27;20448;-57
2023/11/26 10:20:18;;;;;;;13.07;4.65;;;8.30;94.80;;;;;;4282160;27;20069;-57
2023/11/26 10:22:21;;;;;;;11.68;4.93;;;8.40;95.10;;;;;;4285405;27;20043;-57
2023/11/26 10:24:27;;;;;;;14.43;4.80;;;8.50;94.90;;;;;;4285334;27;20046;-57
2023/11/26 10:26:31;;;;;;;9.95;4.35;;;8.60;94.60;;;;;;4285127;27;20057;-57
2023/11/26 10:28:33;;;;;;;11.02;3.35;;;8.60;94.70;;;;;;4285014;27;20478;-57
2023/11/26 10:30:36;;;;;;;7.30;4.13;;;8.70;95.00;;;;;;4284867;27;20043;-57
2023/11/26 10:32:55;;;;;;;12.48;4.80;;;8.80;94.70;;;;;;4284921;27;20043;-57
2023/11/26 10:34:57;;;;;;;8.98;4.05;;;8.80;94.30;;;;;;4285181;27;20146;-57
2023/11/26 10:37:00;;;;;;;11.13;4.63;;;8.70;94.70;;;;;;4284986;27;20046;-57
2023/11/26 10:39:09;;;;;;;11.80;4.75;;;8.80;94.60;;;;;;4284701;27;20595;-57
2023/11/26 10:41:11;;;;;;;13.40;4.53;;;8.80;94.20;;;;;;4284899;27;20079;-55
2023/11/26 10:43:13;;;;;;;10.60;4.55;;;8.90;94.40;;;;;;4285084;27;20046;-55